Time;durP1;ratioP1;P1;durP2;ratioP2;P2;SDS_P1;SDS_P2;PMS_P1;PMS_P2;Temp;Humidity;BMP_temperature;BMP_pressure;BME280_temperature;BME280_humidity;BME280_pressure;Samples;Min_cycle;Max_cycle;Signal;HPM_P1;HPM_P2
2022/12/15 00:38:49;;;;;;;408.83;28.95;;;;;;;11.69;51.38;93180.59;5056849;28;20182;-86
2022/12/15 00:41:16;;;;;;;145.40;23.63;;;;;;;11.81;50.47;93193.13;5056695;28;20089;-87
2022/12/15 00:43:42;;;;;;;594.33;47.42;;;;;;;12.09;50.08;93185.06;5056718;28;20386;-87
2022/12/15 00:48:52;;;;;;;51.08;17.25;;;;;;;12.40;50.23;93181.56;5055697;28;20512;-86
2022/12/15 00:51:17;;;;;;;71.13;17.58;;;;;;;12.78;48.63;93180.22;5056529;28;20025;-87
2022/12/15 01:22:21;;;;;;;48.97;15.20;;;;;;;12.41;50.75;93225.16;5059298;28;20116;-87
2022/12/15 01:24:46;;;;;;;62.35;16.08;;;;;;;11.96;50.82;93220.84;5060675;28;20413;-87
2022/12/15 01:27:12;;;;;;;61.30;17.63;;;;;;;11.36;51.02;93225.50;5060107;28;20021;-87
2022/12/15 01:29:38;;;;;;;42.58;15.13;;;;;;;12.41;50.51;93224.38;5060355;28;20087;-87
2022/12/15 01:32:03;;;;;;;51.58;12.27;;;;;;;12.17;49.53;93225.56;5058761;28;20033;-86
2022/12/15 01:34:29;;;;;;;112.05;14.23;;;;;;;11.47;51.73;93228.66;5058666;28;20033;-87
2022/12/15 01:36:54;;;;;;;23.65;8.57;;;;;;;12.81;50.45;93220.88;5059897;28;20029;-87
2022/12/15 01:39:19;;;;;;;21.25;9.05;;;;;;;12.94;50.24;93229.69;5060534;28;20029;-87
2022/12/15 01:41:45;;;;;;;9.13;5.05;;;;;;;12.88;49.02;93229.06;5060087;28;20533;-87
2022/12/15 01:44:24;;;;;;;20.17;7.45;;;;;;;13.60;49.35;93222.66;5060047;28;20078;-87
2022/12/15 01:46:52;;;;;;;8.90;4.55;;;;;;;12.54;51.67;93217.44;5059813;28;20334;-87
2022/12/15 01:49:25;;;;;;;10.35;5.10;;;;;;;13.02;49.79;93221.00;5060010;28;20036;-87
2022/12/15 01:51:55;;;;;;;16.08;6.65;;;;;;;13.36;50.31;93216.03;5058381;28;20044;-87
2022/12/15 01:54:35;;;;;;;7.88;4.25;;;;;;;13.93;49.50;93214.97;5058755;28;20026;-87
2022/12/15 01:57:04;;;;;;;9.88;4.72;;;;;;;12.96;50.45;93215.13;5058455;28;20063;-87
2022/12/15 01:59:42;;;;;;;10.18;5.30;;;;;;;13.83;49.47;93207.41;5058892;28;20438;-87
2022/12/15 02:02:07;;;;;;;10.05;4.72;;;;;;;12.40;50.51;93217.59;5059286;28;20113;-87
2022/12/15 02:04:33;;;;;;;9.93;4.50;;;;;;;11.85;52.29;93216.94;5058511;28;20056;-87
2022/12/15 02:06:58;;;;;;;11.23;4.75;;;;;;;12.04;50.73;93224.59;5058199;28;20036;-87
2022/12/15 02:09:24;;;;;;;9.57;4.15;;;;;;;13.04;50.99;93229.34;5059651;28;20036;-86
2022/12/15 02:11:56;;;;;;;10.07;5.28;;;;;;;13.79;48.82;93214.41;5041432;28;20039;-87
2022/12/15 02:14:36;;;;;;;13.00;5.78;;;;;;;13.91;49.21;93206.59;5058171;28;20036;-86
2022/12/15 02:17:29;;;;;;;17.40;7.43;;;;;;;13.90;49.03;93199.78;5057835;28;20128;-86
2022/12/15 02:20:22;;;;;;;268.38;18.67;;;;;;;13.04;48.86;93208.31;5059093;28;20119;-87
2022/12/15 02:22:56;;;;;;;223.48;15.20;;;;;;;13.75;49.09;93221.38;5059161;28;20032;-86
2022/12/15 02:26:17;;;;;;;644.53;40.33;;;;;;;12.50;50.08;93222.56;5059063;28;20033;-87
2022/12/15 02:29:06;;;;;;;615.78;36.10;;;;;;;12.91;50.17;93211.88;5045167;28;20045;-87
2022/12/15 02:31:53;;;;;;;324.30;20.27;;;;;;;12.94;49.83;93200.78;5040811;28;20029;-86
2022/12/15 02:34:22;;;;;;;71.20;12.93;;;;;;;13.41;49.55;93197.44;5057505;28;20394;-87
2022/12/15 02:36:51;;;;;;;31.98;10.65;;;;;;;13.34;49.94;93186.63;5058726;28;20041;-87
2022/12/15 02:39:17;;;;;;;986.08;58.72;;;;;;;11.02;52.54;93187.50;5059104;28;20041;-87
2022/12/15 02:41:45;;;;;;;260.05;17.95;;;;;;;13.06;49.30;93187.78;5057821;28;20182;-86
2022/12/15 02:44:24;;;;;;;518.30;31.83;;;;;;;13.11;50.68;93189.44;5057558;28;20032;-87
2022/12/15 02:47:14;;;;;;;13.38;6.10;;;;;;;14.15;47.48;93184.19;5057823;28;20407;-87
2022/12/15 02:50:07;;;;;;;13.93;6.35;;;;;;;13.53;48.63;93188.94;5057640;28;20062;-87
2022/12/15 02:52:35;;;;;;;13.50;4.97;;;;;;;12.92;50.30;93189.81;5058219;28;20044;-87
2022/12/15 02:55:31;;;;;;;10.00;5.40;;;;;;;13.40;49.56;93195.91;5058116;28;20059;-87
2022/12/15 02:58:15;;;;;;;14.95;6.05;;;;;;;14.08;48.62;93195.22;5058179;28;20063;-86
2022/12/15 03:00:42;;;;;;;;;;;;;;;14.40;48.20;93202.81;5058677;28;20450;-86
2022/12/15 03:03:07;;;;;;;21.90;6.68;;;;;;;13.63;48.88;93200.97;5057220;28;19916;-87
2022/12/15 03:05:33;;;;;;;30.13;8.77;;;;;;;13.28;50.10;93199.19;5057446;28;20024;-87
2022/12/15 03:07:58;;;;;;;22.70;8.10;;;;;;;13.63;50.22;93196.50;5058532;28;20040;-87
2022/12/15 03:10:24;;;;;;;25.17;7.95;;;;;;;14.21;49.79;93203.22;5057001;28;20036;-86
2022/12/15 03:12:50;;;;;;;28.35;7.68;;;;;;;14.33;49.29;93205.16;5057276;28;20037;-86
2022/12/15 03:15:16;;;;;;;55.75;8.88;;;;;;;14.16;49.68;93206.03;5056841;28;20040;-86
2022/12/15 03:17:42;;;;;;;24.20;7.75;;;;;;;14.29;49.03;93210.31;5058074;28;20033;-86
2022/12/15 03:20:08;;;;;;;18.90;7.43;;;;;;;14.67;48.32;93216.59;5057922;28;20028;-87
2022/12/15 03:22:35;;;;;;;251.07;18.70;;;;;;;13.33;48.58;93206.91;5058420;28;20032;-87
2022/12/15 03:25:00;;;;;;;29.42;9.18;;;;;;;14.20;48.35;93212.22;5057049;28;20035;-86
2022/12/15 03:27:25;;;;;;;16.88;7.88;;;;;;;13.77;49.25;93229.72;5056732;28;20037;-87
2022/12/15 03:29:51;;;;;;;278.02;18.55;;;;;;;13.69;48.30;93232.09;5056833;28;20059;-87
2022/12/15 03:32:16;;;;;;;30.95;9.23;;;;;;;13.41;49.56;93229.78;5058049;28;20037;-87
2022/12/15 03:34:41;;;;;;;20.27;8.05;;;;;;;13.94;48.31;93232.31;5056730;28;20120;-87
2022/12/15 03:37:08;;;;;;;38.88;8.77;;;;;;;13.89;46.50;93248.28;5056500;28;20419;-87
2022/12/15 03:39:33;;;;;;;17.30;7.50;;;;;;;14.09;48.21;93259.97;5056493;28;20024;-87
2022/12/15 03:41:58;;;;;;;383.30;20.70;;;;;;;12.73;49.31;93262.63;5056480;28;20047;-87
2022/12/15 03:44:24;;;;;;;18.55;7.40;;;;;;;13.97;47.65;93278.28;5056094;28;20041;-87
2022/12/15 03:46:49;;;;;;;146.68;13.95;;;;;;;13.52;47.32;93275.00;5057828;28;20032;-87
2022/12/15 03:49:15;;;;;;;418.95;27.80;;;;;;;12.29;50.19;93269.63;5057757;28;20033;-86
2022/12/15 03:51:40;;;;;;;160.32;12.55;;;;;;;13.01;49.80;93262.31;5056019;28;20029;-86
2022/12/15 03:54:06;;;;;;;99.70;13.00;;;;;;;12.87;50.10;93262.47;5057488;28;20029;-86
2022/12/15 03:56:32;;;;;;;221.68;16.92;;;;;;;12.77;49.07;93260.16;5056081;28;20095;-87
2022/12/15 03:58:57;;;;;;;77.20;11.65;;;;;;;13.04;50.15;93255.66;5056385;28;20141;-87
2022/12/15 04:01:28;;;;;;;82.32;12.82;;;;;;;12.87;50.38;93246.69;5057462;28;20039;-87
2022/12/15 04:03:55;;;;;;;31.05;11.05;;;;;;;13.13;50.04;93248.53;5056037;28;20098;-86
2022/12/15 04:06:20;;;;;;;26.90;11.45;;;;;;;13.43;49.43;93255.81;5060112;28;20319;-86
2022/12/15 04:08:46;;;;;;;63.95;12.38;;;;;;;12.59;50.37;93241.72;5065449;28;20086;-87
2022/12/15 04:11:11;;;;;;;46.83;11.98;;;;;;;13.13;49.12;93258.31;5068322;28;20043;-87
2022/12/15 04:13:37;;;;;;;143.32;14.88;;;;;;;13.02;49.40;93247.31;5068975;28;20082;-86
2022/12/15 04:16:03;;;;;;;185.65;16.33;;;;;;;13.88;49.27;93254.63;5076982;28;20037;-86
2022/12/15 04:18:28;;;;;;;721.10;37.97;;;;;;;13.77;49.12;93251.56;5076145;28;20119;-86
2022/12/15 04:20:55;;;;;;;811.55;51.70;;;;;;;13.20;48.27;93248.09;5075733;28;20036;-87
2022/12/15 04:23:21;;;;;;;51.10;11.05;;;;;;;13.49;49.36;93248.56;5076165;28;20037;-86
2022/12/15 05:32:20;;;;;;;64.63;14.88;;;;;;;14.35;47.79;93287.31;5079800;28;20032;-86
2022/12/15 05:34:45;;;;;;;106.25;15.50;;;;;;;13.52;48.75;93292.66;5078448;28;20036;-85
2022/12/15 05:37:10;;;;;;;316.40;24.52;;;;;;;13.22;49.10;93297.75;5079717;28;20035;-86
2022/12/15 05:39:36;;;;;;;241.23;21.20;;;;;;;13.55;49.07;93307.81;5078440;28;20032;-86
2022/12/15 05:42:01;;;;;;;83.88;15.00;;;;;;;13.57;48.65;93309.06;5078605;28;20345;-86
2022/12/15 05:44:27;;;;;;;278.27;21.20;;;;;;;13.56;47.91;93312.00;5062202;28;20036;-86
2022/12/15 05:46:52;;;;;;;154.85;18.15;;;;;;;13.01;49.40;93308.88;5079560;28;20113;-86
2022/12/15 05:49:18;;;;;;;281.85;22.00;;;;;;;12.94;49.92;93317.22;5078666;28;20037;-86
2022/12/15 05:51:45;;;;;;;346.58;24.42;;;;;;;13.46;50.22;93318.34;5078043;28;20115;-87
2022/12/15 05:54:14;;;;;;;318.90;24.98;;;;;;;12.77;50.87;93323.22;5078431;28;20035;-86
2022/12/15 05:56:40;;;;;;;35.95;15.90;;;;;;;13.97;48.97;93331.75;5079647;28;20033;-86
2022/12/15 05:59:06;;;;;;;112.38;16.20;;;;;;;13.55;48.45;93329.63;5078454;28;20043;-88
2022/12/15 06:01:31;;;;;;;250.75;25.38;;;;;;;13.43;48.69;93332.88;5079302;28;20489;-88
2022/12/15 06:03:58;;;;;;;172.68;19.92;;;;;;;13.15;50.51;93327.16;5079728;28;20036;-88
2022/12/15 06:06:23;;;;;;;46.17;13.82;;;;;;;13.86;49.05;93335.78;5077716;28;20031;-86
2022/12/15 06:08:49;;;;;;;116.07;15.13;;;;;;;13.76;49.06;93336.88;5061340;28;20430;-86
2022/12/15 06:11:16;;;;;;;399.42;25.70;;;;;;;13.57;48.84;93331.94;5058308;28;20126;-87
2022/12/15 06:13:45;;;;;;;540.05;32.95;;;;;;;14.08;48.43;93340.06;5058466;28;20362;-87
2022/12/15 06:16:16;;;;;;;207.13;16.20;;;;;;;14.25;48.47;93355.06;5058250;28;20170;-87
2022/12/15 06:18:52;;;;;;;757.58;47.72;;;;;;;14.00;47.86;93364.59;5057753;28;20339;-86
2022/12/15 06:21:22;;;;;;;694.30;49.22;;;;;;;13.20;49.83;93348.03;5057870;28;20037;-87
2022/12/15 06:23:48;;;;;;;523.17;32.05;;;;;;;12.71;50.12;93350.72;5058217;28;20116;-86
2022/12/15 06:26:17;;;;;;;54.22;12.68;;;;;;;14.44;48.22;93351.28;5057844;28;20086;-85
2022/12/15 06:28:43;;;;;;;41.60;13.57;;;;;;;14.20;48.22;93360.50;5050363;28;20033;-85
2022/12/15 06:31:10;;;;;;;425.50;29.48;;;;;;;14.49;48.55;93356.38;5057572;28;20131;-86
2022/12/15 06:33:36;;;;;;;406.73;27.70;;;;;;;13.27;48.90;93331.78;5057579;28;20056;-87
2022/12/15 06:36:11;;;;;;;32.72;13.00;;;;;;;14.52;48.26;93339.16;5073782;28;20033;-86
2022/12/15 06:38:36;;;;;;;334.52;22.88;;;;;;;12.90;49.42;93336.53;5077414;28;20035;-86
2022/12/15 06:41:04;;;;;;;32.78;12.63;;;;;;;14.40;48.32;93345.84;5077112;28;20036;-87
2022/12/15 06:43:30;;;;;;;438.55;29.92;;;;;;;13.43;49.17;93347.88;5077142;28;20056;-86
2022/12/15 06:45:55;;;;;;;524.40;34.95;;;;;;;12.79;49.28;93355.22;5077397;28;20036;-87
2022/12/15 06:48:22;;;;;;;49.00;13.32;;;;;;;13.95;48.86;93368.16;5078893;28;20036;-86
2022/12/15 06:50:48;;;;;;;234.35;19.75;;;;;;;13.27;49.68;93368.59;5077302;28;20089;-87
2022/12/15 06:53:16;;;;;;;778.90;49.97;;;;;;;13.10;50.25;93364.88;5077603;28;20048;-87
2022/12/15 06:55:41;;;;;;;490.10;34.40;;;;;;;12.93;50.81;93364.84;5078526;28;20380;-86
2022/12/15 06:58:07;;;;;;;75.80;14.10;;;;;;;13.81;49.02;93364.91;5077124;28;20036;-88
2022/12/15 07:00:35;;;;;;;390.90;26.42;;;;;;;13.71;49.69;93364.16;5078565;28;20040;-88
2022/12/15 07:03:06;;;;;;;89.00;15.35;;;;;;;13.95;49.44;93368.16;5077435;28;20059;-87
2022/12/15 07:05:31;;;;;;;327.30;25.75;;;;;;;13.15;49.94;93369.22;5077348;28;20032;-88
2022/12/15 07:07:57;;;;;;;394.33;26.25;;;;;;;14.01;48.79;93387.19;5078174;28;20434;-88
2022/12/15 07:10:22;;;;;;;173.20;17.85;;;;;;;13.44;50.21;93396.81;5077123;28;20036;-88
2022/12/15 07:12:47;;;;;;;716.20;46.22;;;;;;;13.01;50.91;93385.91;5077418;28;20426;-89
2022/12/15 07:15:13;;;;;;;654.08;49.17;;;;;;;12.61;50.32;93390.41;5071755;28;20044;-88
2022/12/15 07:17:39;;;;;;;49.00;14.15;;;;;;;13.35;49.92;93396.78;5055851;28;20462;-88
2022/12/15 07:20:05;;;;;;;427.20;31.48;;;;;;;13.21;51.67;93396.16;5056840;28;20121;-88
2022/12/15 07:22:31;;;;;;;53.00;14.70;;;;;;;13.37;50.63;93399.88;5058152;28;20033;-88
2022/12/15 07:24:56;;;;;;;626.00;46.90;;;;;;;12.99;50.98;93405.69;5058113;28;20382;-89
2022/12/15 07:27:22;;;;;;;62.03;16.40;;;;;;;14.27;49.27;93404.78;5056935;28;20037;-88
2022/12/15 07:29:47;;;;;;;967.92;75.80;;;;;;;13.14;49.50;93392.09;5063610;28;20441;-88
2022/12/15 07:32:14;;;;;;;269.17;21.77;;;;;;;13.70;50.46;93396.81;5078011;28;20043;-88
2022/12/15 07:34:40;;;;;;;677.15;52.50;;;;;;;13.50;50.05;93389.56;5077638;28;20043;-88
2022/12/15 07:37:05;;;;;;;501.90;34.08;;;;;;;13.51;49.51;93383.19;5077841;28;20040;-88
2022/12/15 07:39:31;;;;;;;661.05;44.63;;;;;;;12.93;50.22;93373.50;5077418;28;20033;-89
2022/12/15 07:41:56;;;;;;;99.95;20.75;;;;;;;13.51;50.84;93372.69;5076081;28;20047;-88
2022/12/15 07:44:21;;;;;;;392.98;28.45;;;;;;;13.32;50.23;93378.97;5077504;28;20052;-89
2022/12/15 07:46:48;;;;;;;539.25;32.20;;;;;;;12.53;51.37;93379.56;5077565;28;20441;-88
2022/12/15 07:49:15;;;;;;;269.25;24.02;;;;;;;13.52;50.15;93379.50;5062472;28;20103;-88
2022/12/15 07:51:40;;;;;;;526.85;37.38;;;;;;;13.07;50.65;93377.84;5056390;28;20032;-90
2022/12/15 07:54:08;;;;;;;170.55;18.67;;;;;;;13.22;50.25;93387.94;5057245;28;20025;-88
2022/12/15 07:56:33;;;;;;;136.45;17.13;;;;;;;12.63;50.83;93396.16;5056153;28;20343;-88
2022/12/15 07:58:59;;;;;;;87.97;16.02;;;;;;;14.20;50.65;93405.28;5057596;28;20087;-88
2022/12/15 08:01:25;;;;;;;828.47;55.67;;;;;;;12.59;51.51;93407.25;5056299;28;20040;-89
2022/12/15 08:03:51;;;;;;;95.13;16.88;;;;;;;14.16;50.37;93428.06;5057607;28;20025;-88
2022/12/15 08:06:16;;;;;;;506.63;37.55;;;;;;;13.79;50.35;93435.53;5057538;28;20086;-89
2022/12/15 08:08:43;;;;;;;818.28;51.40;;;;;;;12.26;52.58;93433.03;5057210;28;20028;-89
2022/12/15 08:11:12;;;;;;;813.25;53.50;;;;;;;13.61;50.47;93424.22;5055892;28;20027;-89
2022/12/15 08:13:38;;;;;;;284.00;24.33;;;;;;;13.97;50.22;93428.38;5055921;28;20074;-89
2022/12/15 08:16:03;;;;;;;786.05;49.83;;;;;;;12.73;51.22;93430.03;5055869;28;20505;-88
2022/12/15 08:18:35;;;;;;;43.22;16.15;;;;;;;15.13;49.99;93436.44;5057370;28;20036;-89
2022/12/15 08:21:10;;;;;;;192.00;20.40;;;;;;;15.01;47.69;93433.72;5055506;28;20025;-88
2022/12/15 08:23:36;;;;;;;55.80;14.57;;;;;;;15.08;48.64;93449.84;5056166;28;20123;-89
2022/12/15 08:26:14;;;;;;;695.63;36.67;;;;;;;15.35;47.37;93454.97;5055494;28;20108;-88
2022/12/15 08:28:40;;;;;;;514.95;34.38;;;;;;;14.76;47.61;93448.56;5055812;28;20028;-89
2022/12/15 08:31:08;;;;;;;36.15;14.88;;;;;;;15.32;48.30;93447.69;5055267;28;20036;-89
2022/12/15 08:33:34;;;;;;;619.08;37.15;;;;;;;14.49;47.71;93450.47;5055882;28;20312;-89
2022/12/15 08:36:02;;;;;;;162.20;18.02;;;;;;;14.57;49.43;93437.25;5055870;28;20029;-90
2022/12/15 08:38:29;;;;;;;339.55;24.38;;;;;;;14.79;48.65;93440.81;5055412;28;20024;-90
2022/12/15 08:40:54;;;;;;;277.60;21.95;;;;;;;14.80;47.90;93449.47;5055516;28;20044;-88
2022/12/15 08:43:20;;;;;;;1070.00;64.60;;;;;;;14.03;48.74;93444.81;5056658;28;20028;-88
2022/12/15 08:45:45;;;;;;;819.13;55.15;;;;;;;13.09;49.45;93450.09;5055589;28;20021;-89
2022/12/15 08:48:10;;;;;;;529.90;29.85;;;;;;;14.07;48.18;93457.03;5057009;28;20327;-89
2022/12/15 08:50:36;;;;;;;153.70;15.98;;;;;;;14.08;49.66;93457.81;5039036;28;20028;-89
2022/12/15 08:53:01;;;;;;;71.43;15.00;;;;;;;14.87;48.87;93452.41;5056536;28;20029;-89
2022/12/15 08:55:27;;;;;;;657.55;41.97;;;;;;;14.05;48.82;93461.06;5055327;28;20032;-89
2022/12/15 08:57:53;;;;;;;57.90;13.95;;;;;;;15.00;49.11;93455.91;5055462;28;20033;-88
2022/12/15 09:00:18;;;;;;;198.07;18.40;;;;;;;14.44;49.39;93464.59;5056518;28;20384;-89
2022/12/15 09:02:44;;;;;;;329.92;20.58;;;;;;;14.31;47.56;93468.16;5055344;28;20028;-89
2022/12/15 09:05:09;;;;;;;702.17;41.15;;;;;;;13.90;48.87;93484.16;5056561;28;20021;-89
2022/12/15 09:07:35;;;;;;;730.75;46.95;;;;;;;13.64;49.84;93479.66;5055278;28;20043;-89
2022/12/15 09:10:00;;;;;;;552.53;38.13;;;;;;;13.75;49.50;93485.38;5055195;28;20163;-89
2022/12/15 09:12:26;;;;;;;583.22;39.00;;;;;;;12.81;52.03;93484.50;5056761;28;20094;-89
2022/12/15 09:14:51;;;;;;;184.80;20.58;;;;;;;14.89;49.37;93484.50;5055505;28;20147;-89
2022/12/15 09:17:17;;;;;;;683.00;45.63;;;;;;;14.47;48.26;93485.03;5055521;28;20033;-89
2022/12/15 09:19:42;;;;;;;814.38;53.67;;;;;;;14.44;49.15;93490.94;5056613;28;20032;-89
2022/12/15 09:22:08;;;;;;;298.50;22.92;;;;;;;15.08;47.39;93496.53;5056704;28;20029;-89
2022/12/15 09:24:33;;;;;;;417.58;30.13;;;;;;;14.87;48.88;93494.59;5055230;28;20028;-89
2022/12/15 09:26:58;;;;;;;283.70;19.88;;;;;;;15.12;46.48;93482.41;5055148;28;20029;-89
2022/12/15 09:29:24;;;;;;;34.30;13.23;;;;;;;15.07;48.92;93484.44;5056314;28;20082;-90
2022/12/15 09:31:50;;;;;;;124.45;14.98;;;;;;;15.77;48.04;93496.47;5054752;28;20488;-89
2022/12/15 09:34:15;;;;;;;35.30;13.73;;;;;;;16.03;47.16;93492.91;5072035;28;20021;-90
2022/12/15 09:36:41;;;;;;;34.83;14.93;;;;;;;16.30;47.06;93477.59;5056180;28;20053;-88
2022/12/15 09:39:17;;;;;;;25.48;12.13;;;;;;;16.34;46.16;93483.78;5056287;28;20025;-89
2022/12/15 09:41:52;;;;;;;750.65;50.67;;;;;;;14.78;48.08;93473.53;5058005;28;20025;-89
2022/12/15 09:44:20;;;;;;;119.28;15.38;;;;;;;15.94;48.76;93456.00;5059079;28;20029;-89
2022/12/15 09:47:18;;;;;;;629.90;38.50;;;;;;;14.77;48.65;93458.78;5058340;28;20021;-89
2022/12/15 09:49:57;;;;;;;792.97;47.00;;;;;;;14.86;49.72;93471.16;5050752;28;20131;-89
2022/12/15 09:52:26;;;;;;;101.18;15.82;;;;;;;15.71;48.44;93463.44;5058291;28;20028;-89
2022/12/15 09:54:52;;;;;;;481.42;25.35;;;;;;;15.02;48.67;93464.28;5058808;28;20028;-89
2022/12/15 09:57:39;;;;;;;441.35;27.63;;;;;;;15.83;48.36;93468.78;5058742;28;20385;-89
2022/12/15 10:00:14;;;;;;;352.48;24.30;;;;;;;15.52;47.14;93467.28;5058355;28;20078;-89
2022/12/15 10:03:14;;;;;;;32.92;13.88;;;;;;;16.67;46.04;93459.97;5059652;28;20029;-89
2022/12/15 10:05:58;;;;;;;783.75;54.92;;;;;;;14.57;49.75;93452.31;5059077;28;20048;-89
2022/12/15 10:08:29;;;;;;;30.08;13.23;;;;;;;16.51;47.46;93445.84;5059113;28;20070;-89
2022/12/15 10:11:03;;;;;;;62.67;14.57;;;;;;;17.09;46.81;93451.13;5057935;28;20350;-88
2022/12/15 10:13:38;;;;;;;109.60;18.65;;;;;;;17.05;46.37;93454.75;5058283;28;20083;-89
2022/12/15 10:16:13;;;;;;;343.27;26.58;;;;;;;16.60;47.07;93459.75;5058977;28;20346;-89
2022/12/15 10:19:02;;;;;;;722.47;45.78;;;;;;;15.88;48.09;93439.53;5057815;28;20424;-89
2022/12/15 10:21:29;;;;;;;452.77;30.52;;;;;;;16.10;46.71;93438.44;5059098;28;20103;-89
2022/12/15 10:24:14;;;;;;;859.55;56.92;;;;;;;15.15;47.58;93424.81;5058245;28;20032;-89
2022/12/15 10:26:40;;;;;;;27.48;11.55;;;;;;;16.53;47.82;93431.19;5058582;28;20078;-89
2022/12/15 10:29:24;;;;;;;696.55;42.42;;;;;;;15.38;47.86;93412.88;5057854;28;20477;-89
2022/12/15 10:31:53;;;;;;;41.95;14.50;;;;;;;16.22;48.02;93398.09;5057963;28;20023;-89
2022/12/15 10:34:28;;;;;;;487.10;31.02;;;;;;;16.65;46.79;93395.31;5057813;28;20028;-89
2022/12/15 10:36:54;;;;;;;187.60;16.38;;;;;;;16.42;47.59;93381.69;5058015;28;20347;-89
2022/12/15 10:39:21;;;;;;;888.42;51.47;;;;;;;15.54;47.60;93388.53;5057728;28;20110;-88
2022/12/15 10:42:11;;;;;;;181.38;19.20;;;;;;;17.29;46.28;93398.41;5058603;28;20028;-89
2022/12/15 10:44:39;;;;;;;1075.38;66.38;;;;;;;16.48;47.03;93396.28;5057913;28;20177;-89
2022/12/15 10:47:30;;;;;;;1037.03;68.80;;;;;;;15.49;48.20;93394.00;5059006;28;20170;-89
2022/12/15 10:50:17;;;;;;;62.28;16.02;;;;;;;16.82;46.76;93389.03;5058198;28;20025;-90
2022/12/15 10:52:42;;;;;;;640.28;41.22;;;;;;;15.01;48.02;93386.25;5058610;28;20032;-90
2022/12/15 10:55:39;;;;;;;61.80;15.18;;;;;;;16.29;46.66;93371.13;5058455;28;20427;-90
2022/12/15 10:58:23;;;;;;;512.25;35.55;;;;;;;16.35;47.65;93369.03;5057112;28;20024;-89
2022/12/15 11:01:06;;;;;;;166.25;16.50;;;;;;;17.78;45.74;93365.72;5060317;28;20025;-90
2022/12/15 11:03:36;;;;;;;826.38;45.92;;;;;;;16.67;47.46;93350.78;5060604;28;20120;-90
2022/12/15 11:06:17;;;;;;;139.32;17.58;;;;;;;17.09;46.88;93352.44;5061306;28;20017;-89
2022/12/15 11:08:46;;;;;;;153.23;17.92;;;;;;;17.53;47.25;93343.84;5059968;28;20119;-89
2022/12/15 11:14:24;;;;;;;829.97;46.47;;;;;;;15.91;46.96;93335.13;5058363;28;20028;-90
2022/12/15 11:16:57;;;;;;;733.25;48.33;;;;;;;15.64;48.66;93326.66;5058448;28;20434;-89
2022/12/15 11:19:46;;;;;;;29.25;13.05;;;;;;;17.85;45.88;93322.75;5056743;28;20021;-90
2022/12/15 11:22:22;;;;;;;36.53;14.15;;;;;;;17.64;46.30;93329.00;5056975;28;20029;-90
2022/12/15 11:25:03;;;;;;;49.33;14.05;;;;;;;17.88;45.45;93331.91;5056813;28;20036;-89
2022/12/15 11:27:33;;;;;;;30.83;13.20;;;;;;;18.11;45.14;93345.41;5057167;28;20025;-90
2022/12/15 11:30:12;;;;;;;320.95;24.70;;;;;;;18.41;44.10;93337.06;5056660;28;20353;-89
2022/12/15 11:32:41;;;;;;;769.33;56.03;;;;;;;17.32;45.87;93333.44;5056500;28;20089;-90
2022/12/15 11:35:12;;;;;;;894.00;48.42;;;;;;;15.82;46.29;93332.56;5056355;28;20131;-89
2022/12/15 11:37:43;;;;;;;83.25;13.77;;;;;;;16.27;47.92;93331.03;5039712;28;20029;-89
2022/12/15 11:40:14;;;;;;;707.63;45.47;;;;;;;15.45;49.29;93321.84;5057259;28;20060;-87
2022/12/15 11:42:50;;;;;;;101.22;17.80;;;;;;;17.58;46.53;93309.19;5066895;28;20028;-87
2022/12/15 11:45:44;;;;;;;669.20;46.03;;;;;;;16.68;46.53;93304.72;5062499;28;20029;-86
2022/12/15 11:48:16;;;;;;;40.92;16.25;;;;;;;18.47;45.44;93303.09;5077480;28;20434;-87
2022/12/15 11:50:58;;;;;;;180.07;18.70;;;;;;;18.45;45.22;93290.16;5076216;28;20039;-87
2022/12/15 11:53:38;;;;;;;127.15;15.88;;;;;;;18.00;44.45;93288.69;5076532;28;20029;-86
2022/12/15 11:56:07;;;;;;;32.35;13.68;;;;;;;17.66;46.41;93294.25;5073984;28;20041;-86
2022/12/15 11:59:07;;;;;;;421.23;27.15;;;;;;;18.18;44.95;93302.41;5077234;28;20032;-86
2022/12/15 12:01:51;;;;;;;841.35;51.75;;;;;;;16.24;47.16;93300.75;5077070;28;20036;-86
2022/12/15 12:04:17;;;;;;;101.40;14.95;;;;;;;17.33;46.08;93298.66;5075605;28;20032;-86
2022/12/15 12:07:04;;;;;;;32.45;14.23;;;;;;;18.16;44.83;93294.78;5077315;28;20039;-86
2022/12/15 12:09:35;;;;;;;76.68;15.88;;;;;;;18.05;44.93;93289.22;5077124;28;20028;-86
2022/12/15 12:12:10;;;;;;;54.88;13.60;;;;;;;18.43;44.08;93273.03;5077079;28;20039;-86
2022/12/15 12:14:54;;;;;;;326.80;26.33;;;;;;;17.63;44.25;93277.16;5069186;28;20039;-86
2022/12/15 12:17:30;;;;;;;39.47;12.30;;;;;;;18.71;43.86;93277.47;5076511;28;20040;-86
2022/12/15 12:20:02;;;;;;;279.27;22.10;;;;;;;18.03;44.13;93277.41;5077017;28;20059;-86
2022/12/15 12:22:34;;;;;;;53.47;16.38;;;;;;;18.06;45.09;93289.97;5075876;28;20036;-86
2022/12/15 12:25:04;;;;;;;199.88;19.77;;;;;;;18.11;43.08;93287.09;5077048;28;20395;-86
2022/12/15 12:27:35;;;;;;;635.25;39.60;;;;;;;16.21;46.84;93280.28;5075532;28;20047;-86
2022/12/15 12:30:09;;;;;;;195.60;19.35;;;;;;;17.07;45.56;93278.69;5075436;28;20036;-86
2022/12/15 12:33:03;;;;;;;43.08;17.83;;;;;;;18.00;45.14;93270.88;5076754;28;20036;-87
2022/12/15 12:35:37;;;;;;;752.88;44.63;;;;;;;17.13;46.28;93262.56;5075661;28;20028;-86
2022/12/15 12:38:04;;;;;;;570.15;32.70;;;;;;;16.71;47.09;93253.81;5075793;28;20033;-86
2022/12/15 12:40:39;;;;;;;60.92;15.95;;;;;;;18.07;45.40;93246.47;5075676;28;20043;-86
2022/12/15 12:43:05;;;;;;;502.98;31.30;;;;;;;16.30;47.49;93250.31;5076914;28;20040;-86
2022/12/15 12:45:32;;;;;;;604.83;47.20;;;;;;;15.61;48.90;93248.88;5075648;28;20040;-86
2022/12/15 12:48:02;;;;;;;182.73;20.98;;;;;;;17.68;45.53;93247.00;5075616;28;20033;-86
2022/12/15 12:50:28;;;;;;;920.72;58.33;;;;;;;17.22;46.92;93249.97;5075274;28;20044;-86
2022/12/15 12:52:57;;;;;;;51.20;16.48;;;;;;;17.86;45.75;93249.31;5075544;28;20429;-86
2022/12/15 12:55:38;;;;;;;976.38;59.17;;;;;;;16.91;46.81;93251.34;5058688;28;20087;-86
2022/12/15 12:58:35;;;;;;;121.88;18.15;;;;;;;18.15;45.24;93265.97;5075621;28;20033;-87
2022/12/15 13:01:25;;;;;;;351.75;25.50;;;;;;;17.37;45.82;93256.41;5076340;28;20388;-87
2022/12/15 13:04:12;;;;;;;812.58;49.58;;;;;;;17.69;45.45;93259.13;5076391;28;20079;-86
2022/12/15 13:06:37;;;;;;;1024.47;69.75;;;;;;;15.95;47.02;93247.00;5075423;28;20036;-87
2022/12/15 13:09:18;;;;;;;785.85;50.33;;;;;;;16.72;46.16;93238.72;5076635;28;20033;-86
2022/12/15 13:12:04;;;;;;;117.25;22.25;;;;;;;17.78;45.66;93229.84;5076582;28;20040;-87
2022/12/15 13:14:49;;;;;;;662.40;37.95;;;;;;;17.56;45.30;93233.81;5075075;28;20036;-87
2022/12/15 13:17:17;;;;;;;69.15;18.55;;;;;;;17.00;46.22;93228.22;5077749;28;20059;-87
2022/12/15 13:19:57;;;;;;;342.08;27.75;;;;;;;17.35;45.77;93232.91;5062796;28;20082;-87
2022/12/15 13:22:37;;;;;;;306.50;24.35;;;;;;;17.74;45.81;93236.94;5080444;28;20041;-87
2022/12/15 13:25:25;;;;;;;37.00;15.02;;;;;;;18.09;44.77;93236.31;5079510;28;20036;-87
2022/12/15 13:27:53;;;;;;;93.18;16.35;;;;;;;17.27;46.25;93225.91;5080287;28;20043;-87
2022/12/15 13:30:18;;;;;;;874.85;66.25;;;;;;;15.55;48.36;93226.44;5078954;28;20036;-87
2022/12/15 13:32:45;;;;;;;736.05;49.20;;;;;;;15.63;47.84;93216.88;5079243;28;20357;-87
2022/12/15 13:35:11;;;;;;;36.08;15.25;;;;;;;16.66;47.05;93207.22;5079168;28;20507;-87
2022/12/15 13:37:52;;;;;;;85.45;16.63;;;;;;;17.54;45.61;93210.34;5080360;28;20039;-87
2022/12/15 13:40:36;;;;;;;486.95;28.13;;;;;;;16.63;46.60;93204.44;5079932;28;20040;-87
2022/12/15 13:43:04;;;;;;;154.05;14.70;;;;;;;17.44;46.08;93202.88;5080295;28;20036;-87
2022/12/15 13:45:51;;;;;;;49.33;12.02;;;;;;;17.84;43.27;93194.06;5079683;28;20032;-86
2022/12/15 13:48:33;;;;;;;25.85;11.27;;;;;;;17.72;42.96;93189.63;5078735;28;20315;-87
2022/12/15 13:51:17;;;;;;;580.97;28.20;;;;;;;17.59;44.76;93183.59;5078518;28;20029;-87